Terminal Aerodrome Forecast
Issued by NWS

Home | Current Version | Previous Version | Text Only | Print | Product List | Glossary On
Versions: 1 2 3 4 5 6 7 8 9 10 11 12
000
FTUS43 KICT 202300
TAFRSL
TAF
KRSL 202321Z 2100/2124 17015G22KT P6SM SCT050 BKN100
     FM210100 17012KT P6SM SCT050 BKN100
     FM210900 23018KT P6SM SCT030 BKN100
     FM211400 01014G21KT P6SM VCSH BKN070
     FM211700 01017G25KT P6SM SCT070=

USA.gov is the U.S. government's official web portal to all federal, state and local government web resources and services.